createdAt,value
2022-09-01T00:00:38.220Z,16.00
2022-09-01T00:03:41.967Z,15.90
2022-09-01T00:06:46.555Z,16.00
2022-09-01T00:09:49.823Z,15.90
2022-09-01T00:12:52.819Z,16.00
2022-09-01T00:15:55.914Z,15.90
2022-09-01T00:18:59.400Z,15.90
2022-09-01T00:22:04.351Z,15.90
2022-09-01T00:25:08.630Z,15.80
2022-09-01T00:28:11.726Z,15.80
2022-09-01T00:31:16.288Z,15.80
2022-09-01T00:34:21.126Z,15.80
2022-09-01T00:37:25.781Z,15.70
2022-09-01T00:40:29.287Z,15.70
2022-09-01T00:43:39.390Z,15.60
2022-09-01T00:46:49.959Z,15.60
2022-09-01T00:49:58.591Z,15.70
2022-09-01T00:53:03.235Z,15.70
2022-09-01T00:56:08.292Z,15.70
2022-09-01T00:59:12.553Z,15.70
2022-09-01T01:02:15.610Z,15.70
2022-09-01T01:05:18.868Z,15.70
2022-09-01T01:08:31.532Z,15.60
2022-09-01T01:11:34.571Z,15.60
2022-09-01T01:14:40.007Z,15.60
2022-09-01T01:17:43.015Z,15.60
2022-09-01T01:21:04.990Z,15.50
2022-09-01T01:24:27.083Z,15.50
2022-09-01T01:27:33.645Z,15.50
2022-09-01T01:30:45.300Z,15.40
2022-09-01T01:33:50.863Z,15.40
2022-09-01T01:36:55.182Z,15.30
2022-09-01T01:39:59.563Z,15.30
2022-09-01T01:43:02.584Z,15.30
2022-09-01T01:46:08.145Z,15.20
2022-09-01T01:49:13.220Z,15.30
2022-09-01T01:52:17.364Z,15.20
2022-09-01T01:55:24.906Z,15.20
2022-09-01T01:58:29.192Z,15.20
2022-09-01T02:01:32.321Z,15.10
2022-09-01T02:04:35.624Z,15.10
2022-09-01T02:07:43.566Z,15.10
2022-09-01T02:10:50.067Z,15.10
2022-09-01T02:13:56.169Z,15.10
2022-09-01T02:16:59.424Z,15.00
2022-09-01T02:20:03.259Z,15.00
2022-09-01T02:23:10.532Z,15.00
2022-09-01T02:26:17.458Z,14.90
2022-09-01T02:29:28.843Z,14.80
2022-09-01T02:32:32.049Z,14.80
2022-09-01T02:35:37.783Z,14.80
2022-09-01T02:38:41.783Z,14.80
2022-09-01T02:41:46.354Z,14.80
2022-09-01T02:44:49.362Z,14.70
2022-09-01T02:47:53.955Z,14.70
2022-09-01T02:50:59.377Z,14.70
2022-09-01T02:54:02.932Z,14.60
2022-09-01T02:57:09.109Z,14.60
2022-09-01T03:00:20.752Z,14.60
2022-09-01T03:03:24.446Z,14.60
2022-09-01T03:06:28.651Z,14.50
2022-09-01T03:09:33.749Z,14.50
2022-09-01T03:12:38.116Z,14.50
2022-09-01T03:15:41.858Z,14.40
2022-09-01T03:18:44.850Z,14.50
2022-09-01T03:21:48.670Z,14.40
2022-09-01T03:24:51.673Z,14.40
2022-09-01T03:27:56.026Z,14.30
2022-09-01T03:30:59.910Z,14.20
2022-09-01T03:34:03.280Z,14.20
2022-09-01T03:37:07.932Z,14.20
2022-09-01T03:40:13.091Z,14.20
2022-09-01T03:43:18.989Z,14.20
2022-09-01T03:46:23.723Z,14.10
2022-09-01T03:49:28.498Z,14.10
2022-09-01T03:52:31.671Z,14.10
2022-09-01T03:55:38.146Z,14.10
2022-09-01T03:58:45.442Z,14.00
2022-09-01T04:01:49.042Z,13.90
2022-09-01T04:04:52.578Z,13.90
2022-09-01T04:07:57.615Z,13.90
2022-09-01T04:11:03.853Z,13.90
2022-09-01T04:14:11.092Z,13.90
2022-09-01T04:17:31.458Z,14.00
2022-09-01T04:20:47.779Z,14.00
2022-09-01T04:23:50.801Z,14.00
2022-09-01T04:26:54.749Z,13.90
2022-09-01T04:30:01.422Z,13.90
2022-09-01T04:33:04.578Z,13.90
2022-09-01T04:36:19.248Z,13.80
2022-09-01T04:39:23.105Z,13.80
2022-09-01T04:42:29.005Z,13.80
2022-09-01T04:45:36.502Z,13.70
2022-09-01T04:48:42.219Z,13.60
2022-09-01T04:51:53.908Z,13.60
2022-09-01T04:54:58.111Z,13.60
2022-09-01T04:58:08.321Z,13.60
2022-09-01T05:01:19.587Z,13.60
2022-09-01T05:04:24.857Z,13.60
2022-09-01T05:07:27.977Z,13.60
2022-09-01T05:10:33.338Z,13.60
2022-09-01T05:13:38.903Z,13.70
2022-09-01T05:16:43.889Z,13.80
2022-09-01T05:19:51.087Z,13.80
2022-09-01T05:22:54.834Z,13.90
2022-09-01T05:25:57.800Z,13.90
2022-09-01T05:29:03.241Z,14.00
2022-09-01T05:32:10.089Z,14.00
2022-09-01T05:35:13.157Z,14.00
2022-09-01T05:38:16.202Z,14.10
2022-09-01T05:41:20.928Z,14.20
2022-09-01T05:44:24.067Z,14.20
2022-09-01T05:47:28.841Z,14.30
2022-09-01T05:50:31.801Z,14.40
2022-09-01T05:53:35.055Z,14.40
2022-09-01T05:56:43.966Z,14.40
2022-09-01T05:59:54.113Z,14.50
2022-09-01T06:02:58.914Z,14.60
2022-09-01T06:06:05.543Z,14.70
2022-09-01T06:09:10.597Z,14.80
2022-09-01T06:12:18.902Z,14.80
2022-09-01T06:15:22.823Z,14.90
2022-09-01T06:18:27.821Z,15.00
2022-09-01T06:21:31.576Z,15.10
2022-09-01T06:24:34.939Z,15.20
2022-09-01T06:27:44.554Z,15.20
2022-09-01T06:30:49.068Z,15.30
2022-09-01T06:33:53.897Z,15.50
2022-09-01T06:36:57.271Z,15.50
2022-09-01T06:40:00.591Z,15.60
2022-09-01T06:43:08.002Z,15.70
2022-09-01T06:46:11.073Z,15.90
2022-09-01T06:49:15.584Z,16.00
2022-09-01T06:52:20.788Z,16.10
2022-09-01T06:55:23.788Z,16.20
2022-09-01T06:58:26.872Z,16.20
2022-09-01T07:01:30.336Z,16.30
2022-09-01T07:04:36.011Z,16.40
2022-09-01T07:08:05.303Z,16.50
2022-09-01T07:14:25.127Z,16.70
2022-09-01T07:17:30.591Z,16.80
2022-09-01T07:21:02.826Z,17.00
2022-09-01T07:24:07.873Z,17.10
2022-09-01T07:27:14.032Z,17.20
2022-09-01T07:30:19.024Z,17.30
2022-09-01T07:33:46.309Z,17.40
2022-09-01T07:43:45.708Z,17.80
2022-09-01T07:47:19.474Z,17.90
2022-09-01T07:53:40.031Z,18.20
2022-09-01T07:56:43.167Z,18.50
2022-09-01T07:59:46.237Z,18.80
2022-09-01T08:02:55.179Z,19.00
2022-09-01T08:06:06.403Z,19.10
2022-09-01T08:09:11.912Z,19.20
2022-09-01T08:12:29.332Z,19.20
2022-09-01T08:15:41.552Z,19.30
2022-09-01T08:18:55.669Z,19.50
2022-09-01T08:21:58.687Z,19.90
2022-09-01T08:25:03.014Z,20.20
2022-09-01T08:28:07.722Z,20.20
2022-09-01T08:31:12.504Z,20.40
2022-09-01T08:34:16.982Z,20.50
2022-09-01T08:37:20.330Z,20.50
2022-09-01T08:40:25.733Z,20.50
2022-09-01T08:43:43.753Z,20.40
2022-09-01T08:46:47.179Z,20.50
2022-09-01T08:49:51.363Z,20.50
2022-09-01T08:53:09.144Z,20.50
2022-09-01T08:56:14.587Z,20.60
2022-09-01T08:59:18.282Z,20.60
2022-09-01T09:02:33.742Z,20.60
2022-09-01T09:05:50.880Z,20.80
2022-09-01T09:08:59.714Z,20.80
2022-09-01T09:12:16.609Z,20.90
2022-09-01T09:15:27.864Z,20.90
2022-09-01T09:18:39.479Z,20.90
2022-09-01T09:21:44.647Z,20.90
2022-09-01T09:24:52.346Z,20.90
2022-09-01T09:28:04.064Z,21.00
2022-09-01T09:31:26.698Z,21.00
2022-09-01T09:34:35.951Z,21.00
2022-09-01T09:37:39.073Z,21.10
2022-09-01T09:41:15.995Z,21.10
2022-09-01T09:44:27.139Z,21.10
2022-09-01T09:47:44.044Z,21.20
2022-09-01T09:50:47.352Z,21.30
2022-09-01T09:53:51.441Z,21.30
2022-09-01T09:57:13.354Z,21.40
2022-09-01T10:00:24.570Z,21.50
2022-09-01T10:03:37.426Z,21.50
2022-09-01T10:06:45.267Z,21.70
2022-09-01T10:09:49.125Z,21.70
2022-09-01T10:12:53.831Z,21.60
2022-09-01T10:16:00.454Z,21.40
2022-09-01T10:19:12.707Z,21.50
2022-09-01T10:22:16.473Z,21.60
2022-09-01T10:25:22.527Z,21.70
2022-09-01T10:28:26.749Z,21.70
2022-09-01T10:31:33.009Z,21.60
2022-09-01T10:34:42.060Z,22.00
2022-09-01T10:37:45.791Z,22.60
2022-09-01T10:41:07.204Z,23.30
2022-09-01T10:44:13.181Z,23.70
2022-09-01T10:47:29.913Z,23.80
2022-09-01T10:50:36.844Z,23.60
2022-09-01T10:53:41.101Z,23.60
2022-09-01T10:56:51.367Z,23.50
2022-09-01T10:59:56.850Z,23.30
2022-09-01T11:03:51.838Z,23.70
2022-09-01T11:07:17.221Z,23.90
2022-09-01T11:10:40.052Z,23.90
2022-09-01T11:13:49.930Z,23.80
2022-09-01T11:17:16.970Z,23.50
2022-09-01T11:20:26.797Z,23.20
2022-09-01T11:23:32.329Z,23.10
2022-09-01T11:26:49.615Z,23.20
2022-09-01T11:29:55.543Z,24.60
2022-09-01T11:33:07.815Z,25.80
2022-09-01T11:36:20.359Z,26.30
2022-09-01T11:39:35.906Z,26.20
2022-09-01T11:42:43.731Z,25.60
2022-09-01T11:46:03.181Z,25.40
2022-09-01T11:49:09.862Z,25.30
2022-09-01T11:52:17.497Z,25.20
2022-09-01T11:55:31.748Z,24.80
2022-09-01T11:58:39.263Z,24.90
2022-09-01T12:01:42.734Z,24.80
2022-09-01T12:04:46.313Z,24.80
2022-09-01T12:07:49.395Z,24.70
2022-09-01T12:11:05.518Z,24.30
2022-09-01T12:14:12.017Z,23.70
2022-09-01T12:17:21.836Z,23.50
2022-09-01T12:20:29.624Z,23.60
2022-09-01T12:23:34.878Z,24.00
2022-09-01T12:26:40.426Z,24.20
2022-09-01T12:29:44.646Z,24.50
2022-09-01T12:32:48.530Z,24.80
2022-09-01T12:35:54.961Z,25.10
2022-09-01T12:39:21.329Z,25.40
2022-09-01T12:42:29.855Z,26.50
2022-09-01T12:45:46.466Z,27.00
2022-09-01T12:48:49.773Z,26.30
2022-09-01T12:52:10.922Z,25.80
2022-09-01T12:58:46.097Z,26.50
2022-09-01T13:01:49.360Z,27.70
2022-09-01T13:04:53.098Z,27.90
2022-09-01T13:07:57.419Z,27.60
2022-09-01T13:11:04.549Z,27.00
2022-09-01T13:14:09.159Z,26.30
2022-09-01T13:17:14.200Z,25.80
2022-09-01T13:20:18.010Z,25.30
2022-09-01T13:23:21.734Z,25.00
2022-09-01T13:26:25.694Z,24.60
2022-09-01T13:29:30.042Z,24.30
2022-09-01T13:32:33.165Z,24.10
2022-09-01T13:35:36.871Z,23.80
2022-09-01T13:38:40.380Z,23.70
2022-09-01T13:41:43.458Z,23.60
2022-09-01T13:44:49.670Z,23.60
2022-09-01T13:51:26.451Z,23.80
2022-09-01T13:54:29.496Z,23.70
2022-09-01T13:57:36.579Z,23.60
2022-09-01T14:00:44.313Z,23.70
2022-09-01T14:03:51.924Z,23.90
2022-09-01T14:06:55.159Z,24.00
2022-09-01T14:09:58.182Z,24.00
2022-09-01T14:13:01.877Z,24.20
2022-09-01T14:16:13.095Z,24.20
2022-09-01T14:19:16.706Z,24.30
2022-09-01T14:22:20.264Z,24.30
2022-09-01T14:25:23.546Z,24.30
2022-09-01T14:28:26.558Z,24.20
2022-09-01T14:31:31.951Z,24.20
2022-09-01T14:34:35.427Z,24.10
2022-09-01T14:37:38.931Z,24.00
2022-09-01T14:40:43.271Z,23.90
2022-09-01T14:43:46.392Z,23.80
2022-09-01T14:46:50.809Z,23.80
2022-09-01T14:49:54.930Z,23.80
2022-09-01T14:52:58.271Z,23.60
2022-09-01T14:56:05.122Z,23.60
2022-09-01T14:59:08.956Z,23.40
2022-09-01T15:02:13.708Z,23.50
2022-09-01T15:05:16.907Z,23.50
2022-09-01T15:08:20.282Z,23.40
2022-09-01T15:11:23.494Z,23.30
2022-09-01T15:14:27.210Z,23.30
2022-09-01T15:17:31.579Z,23.30
2022-09-01T15:20:46.779Z,23.30
2022-09-01T15:23:50.867Z,23.20
2022-09-01T15:26:54.970Z,23.10
2022-09-01T15:29:58.008Z,23.00
2022-09-01T15:33:02.876Z,22.90
2022-09-01T15:36:06.425Z,22.60
2022-09-01T15:39:11.176Z,22.50
2022-09-01T15:45:21.581Z,22.20
2022-09-01T15:48:27.228Z,22.20
2022-09-01T15:51:33.939Z,22.20
2022-09-01T15:54:39.849Z,22.10
2022-09-01T15:57:42.871Z,22.10
2022-09-01T16:00:47.178Z,22.20
2022-09-01T16:03:51.568Z,22.20
2022-09-01T16:06:56.465Z,22.20
2022-09-01T16:09:59.625Z,22.20
2022-09-01T16:13:03.132Z,22.20
2022-09-01T16:16:22.464Z,22.20
2022-09-01T16:19:34.316Z,22.10
2022-09-01T16:22:39.889Z,22.10
2022-09-01T16:25:43.443Z,22.00
2022-09-01T16:28:50.086Z,21.90
2022-09-01T16:31:56.226Z,21.70
2022-09-01T16:35:04.184Z,21.60
2022-09-01T16:38:17.667Z,21.60
2022-09-01T16:41:42.383Z,21.50
2022-09-01T16:44:57.777Z,21.50
2022-09-01T16:48:08.033Z,21.50
2022-09-01T16:51:23.385Z,21.50
2022-09-01T16:54:35.329Z,21.40
2022-09-01T16:57:44.158Z,21.40
2022-09-01T17:01:03.074Z,21.30
2022-09-01T17:04:23.567Z,21.20
2022-09-01T17:07:32.300Z,21.20
2022-09-01T17:10:42.572Z,21.10
2022-09-01T17:13:51.844Z,21.10
2022-09-01T17:17:03.151Z,21.10
2022-09-01T17:20:08.032Z,21.00
2022-09-01T17:23:24.793Z,21.00
2022-09-01T17:26:32.508Z,21.00
2022-09-01T17:29:44.707Z,20.90
2022-09-01T17:33:17.553Z,20.90
2022-09-01T17:36:30.620Z,20.80
2022-09-01T17:39:49.330Z,20.70
2022-09-01T17:43:02.203Z,20.60
2022-09-01T17:46:14.768Z,20.50
2022-09-01T17:49:23.938Z,20.40
2022-09-01T17:52:40.377Z,20.30
2022-09-01T17:55:50.611Z,20.20
2022-09-01T17:59:02.762Z,20.20
2022-09-01T18:02:50.815Z,20.10
2022-09-01T18:06:00.355Z,20.00
2022-09-01T18:09:03.926Z,20.00
2022-09-01T18:12:10.787Z,19.90
2022-09-01T18:15:17.479Z,19.80
2022-09-01T18:18:36.769Z,19.80
2022-09-01T18:21:49.289Z,19.70
2022-09-01T18:24:59.659Z,19.70
2022-09-01T18:28:04.244Z,19.60
2022-09-01T18:31:23.811Z,19.50
2022-09-01T18:34:39.030Z,19.30
2022-09-01T18:37:54.135Z,19.30
2022-09-01T18:41:05.581Z,19.20
2022-09-01T18:44:26.448Z,19.10
2022-09-01T18:47:32.893Z,19.20
2022-09-01T18:50:45.677Z,19.10
2022-09-01T18:53:53.595Z,19.10
2022-09-01T18:57:00.714Z,19.00
2022-09-01T19:00:18.911Z,18.80
2022-09-01T19:03:30.061Z,18.80
2022-09-01T19:06:42.456Z,18.70
2022-09-01T19:09:52.158Z,18.70
2022-09-01T19:13:03.717Z,18.60
2022-09-01T19:16:18.458Z,18.60
2022-09-01T19:19:34.555Z,18.50
2022-09-01T19:22:45.350Z,18.50
2022-09-01T19:25:51.070Z,18.40
2022-09-01T19:28:58.152Z,18.40
2022-09-01T19:32:08.272Z,18.40
2022-09-01T19:35:14.097Z,18.30
2022-09-01T19:38:27.396Z,18.30
2022-09-01T19:41:35.562Z,18.20
2022-09-01T19:44:47.069Z,18.10
2022-09-01T19:47:56.437Z,18.10
2022-09-01T19:51:04.169Z,18.00
2022-09-01T19:54:16.109Z,17.90
2022-09-01T19:57:26.916Z,17.90
2022-09-01T20:00:41.876Z,17.90
2022-09-01T20:03:51.907Z,17.70
2022-09-01T20:07:00.186Z,17.70
2022-09-01T20:10:18.485Z,17.70
2022-09-01T20:13:34.806Z,17.60
2022-09-01T20:16:41.659Z,17.60
2022-09-01T20:19:55.242Z,17.50
2022-09-01T20:23:03.461Z,17.60
2022-09-01T20:26:15.150Z,17.50
2022-09-01T20:29:25.943Z,17.50
2022-09-01T20:32:35.977Z,17.40
2022-09-01T20:35:45.242Z,17.30
2022-09-01T20:39:26.879Z,17.40
2022-09-01T20:42:38.419Z,17.30
2022-09-01T20:45:42.638Z,17.30
2022-09-01T20:48:45.783Z,17.20
2022-09-01T20:51:56.627Z,17.20
2022-09-01T20:55:06.414Z,17.20
2022-09-01T20:58:16.803Z,17.20
2022-09-01T21:01:27.081Z,17.10
2022-09-01T21:04:42.321Z,17.10
2022-09-01T21:07:56.378Z,17.10
2022-09-01T21:11:04.943Z,17.10
2022-09-01T21:14:31.426Z,17.10
2022-09-01T21:17:41.878Z,17.00
2022-09-01T21:20:57.719Z,16.90
2022-09-01T21:24:02.154Z,16.90
2022-09-01T21:27:11.451Z,16.80
2022-09-01T21:30:16.434Z,16.80
2022-09-01T21:33:19.474Z,16.70
2022-09-01T21:36:22.514Z,16.70
2022-09-01T21:39:26.864Z,16.60
2022-09-01T21:42:33.295Z,16.60
2022-09-01T21:45:38.571Z,16.70
2022-09-01T21:48:41.787Z,16.70
2022-09-01T21:51:45.032Z,16.60
2022-09-01T21:54:49.752Z,16.70
2022-09-01T21:57:52.903Z,16.60
2022-09-01T22:00:57.548Z,16.40
2022-09-01T22:04:00.982Z,16.50
2022-09-01T22:07:05.222Z,16.50
2022-09-01T22:10:12.708Z,16.40
2022-09-01T22:13:16.493Z,16.40
2022-09-01T22:16:21.263Z,16.40
2022-09-01T22:19:24.571Z,16.40
2022-09-01T22:22:27.584Z,16.40
2022-09-01T22:25:33.918Z,16.40
2022-09-01T22:28:37.459Z,16.40
2022-09-01T22:31:41.229Z,16.30
2022-09-01T22:34:44.273Z,16.20
2022-09-01T22:37:47.494Z,16.30
2022-09-01T22:40:54.940Z,16.30
2022-09-01T22:43:59.344Z,16.30
2022-09-01T22:47:02.831Z,16.30
2022-09-01T22:50:07.736Z,16.20
2022-09-01T22:53:11.890Z,16.20
2022-09-01T22:56:20.300Z,16.20
2022-09-01T22:59:24.354Z,16.10
2022-09-01T23:02:28.457Z,16.10
2022-09-01T23:05:32.161Z,16.10
2022-09-01T23:08:35.481Z,16.00
2022-09-01T23:11:40.242Z,16.10
2022-09-01T23:14:43.281Z,16.00
2022-09-01T23:17:46.329Z,16.10
2022-09-01T23:20:49.406Z,16.00
2022-09-01T23:23:58.373Z,16.00
2022-09-01T23:27:03.131Z,16.10
2022-09-01T23:30:08.892Z,16.00
2022-09-01T23:33:11.886Z,16.00
2022-09-01T23:36:18.354Z,16.00
2022-09-01T23:39:21.373Z,15.90
2022-09-01T23:42:25.754Z,15.90
2022-09-01T23:45:35.759Z,15.80
2022-09-01T23:48:39.259Z,15.80
2022-09-01T23:51:42.647Z,15.80
2022-09-01T23:54:45.663Z,15.80
2022-09-01T23:57:49.986Z,15.80
